Time;durP1;ratioP1;P1;durP2;ratioP2;P2;SDS_P1;SDS_P2;PMS_P1;PMS_P2;Temp;Humidity;BMP_temperature;BMP_pressure;BME280_temperature;BME280_humidity;BME280_pressure;Samples;Min_cycle;Max_cycle;Signal;HPM_P1;HPM_P2
2021/12/16 00:09:18;;;;;;;;;;;8.80;99.90;;;;;;5016685;28;19993;-70
2021/12/16 00:35:57;;;;;;;;;;;9.20;99.90;;;;;;5011250;28;19929;-69
2021/12/16 00:38:23;;;;;;;;;;;9.20;99.90;;;;;;5008443;28;19920;-69
2021/12/16 00:40:48;;;;;;;;;;;9.30;99.90;;;;;;5008610;28;19909;-70
2021/12/16 00:43:20;;;;;;;;;;;9.30;99.90;;;;;;5007882;28;19914;-70
2021/12/16 00:46:14;;;;;;;;;;;9.30;99.90;;;;;;5011642;28;19917;-69
2021/12/16 00:54:32;;;;;;;;;;;9.30;99.90;;;;;;5008575;28;19944;-70
2021/12/16 00:56:56;;;;;;;;;;;9.30;99.90;;;;;;5005881;28;20412;-68
2021/12/16 00:59:24;;;;;;;;;;;9.30;99.90;;;;;;5010215;28;20009;-69
2021/12/16 01:07:17;;;;;;;;;;;9.30;99.90;;;;;;5017953;28;19925;-70
2021/12/16 01:35:01;;;;;;;;;;;9.40;99.90;;;;;;5002065;28;19920;-69
2021/12/16 01:38:07;;;;;;;;;;;9.30;99.90;;;;;;5003891;28;19917;-69
2021/12/16 01:45:54;;;;;;;;;;;9.50;99.90;;;;;;5012857;28;19952;-71
2021/12/16 01:51:18;;;;;;;;;;;9.50;99.90;;;;;;5011560;28;19971;-69
2021/12/16 01:57:05;;;;;;;;;;;9.40;99.90;;;;;;4999122;28;20049;-68
2021/12/16 01:59:35;;;;;;;;;;;9.50;99.90;;;;;;4994774;28;20036;-69
2021/12/16 02:02:13;;;;;;;;;;;9.40;99.90;;;;;;5002960;28;19913;-69
2021/12/16 02:05:05;;;;;;;;;;;9.50;99.90;;;;;;5011400;28;19917;-68
2021/12/16 02:07:46;;;;;;;;;;;9.60;99.90;;;;;;5023228;28;19917;-68
2021/12/16 02:10:11;;;;;;;;;;;9.60;99.90;;;;;;5001457;28;20004;-69
2021/12/16 02:12:54;;;;;;;;;;;9.70;99.90;;;;;;5014307;28;19936;-69
2021/12/16 02:31:50;;;;;;;;;;;9.60;99.90;;;;;;5011930;28;20273;-68
2021/12/16 02:34:29;;;;;;;;;;;9.60;99.90;;;;;;4997404;28;19918;-68
2021/12/16 02:36:55;;;;;;;;;;;9.60;99.90;;;;;;5010392;28;19921;-70
2021/12/16 02:39:25;;;;;;;;;;;9.70;99.90;;;;;;5009852;28;19913;-68
2021/12/16 02:42:17;;;;;;;;;;;9.70;99.90;;;;;;5025559;28;20059;-69
2021/12/16 02:50:05;;;;;;;;;;;9.70;99.90;;;;;;5012419;28;19947;-68
2021/12/16 02:52:31;;;;;;;;;;;9.80;99.90;;;;;;5009171;28;19909;-69
2021/12/16 02:54:56;;;;;;;;;;;9.90;99.90;;;;;;5009727;28;19927;-68
2021/12/16 02:57:24;;;;;;;;;;;9.80;99.90;;;;;;5010259;28;20280;-68
2021/12/16 02:59:51;;;;;;;;;;;9.80;99.90;;;;;;5017772;28;19979;-68
2021/12/16 03:02:18;;;;;;;;;;;9.80;99.90;;;;;;5009488;28;19918;-69
2021/12/16 03:04:45;;;;;;;;;;;9.70;99.90;;;;;;5021353;28;19924;-68
2021/12/16 03:07:13;;;;;;;;;;;9.70;99.90;;;;;;5019069;28;19922;-68
2021/12/16 03:15:00;;;;;;;;;;;9.80;99.90;;;;;;5012394;28;19917;-69
2021/12/16 03:17:36;;;;;;;;;;;9.80;99.90;;;;;;5010905;28;19965;-68
2021/12/16 03:20:10;;;;;;;;;;;9.80;99.90;;;;;;5024676;28;20119;-68
2021/12/16 03:25:22;;;;;;;;;;;9.90;99.90;;;;;;5009360;28;19929;-68
2021/12/16 03:28:22;;;;;;;;;;;9.80;99.90;;;;;;5008582;28;19974;-68
2021/12/16 03:36:07;;;;;;;;;;;9.70;99.90;;;;;;5007656;28;19921;-68
2021/12/16 03:38:34;;;;;;;;;;;9.60;99.90;;;;;;5015630;28;20414;-69
2021/12/16 03:41:00;;;;;;;;;;;9.60;99.90;;;;;;5011739;28;19914;-69
2021/12/16 03:43:28;;;;;;;;;;;9.60;99.90;;;;;;5008888;28;20515;-68
2021/12/16 03:48:45;;;;;;;;;;;9.50;99.90;;;;;;5009709;28;19926;-69
2021/12/16 03:51:12;;;;;;;;;;;9.60;99.90;;;;;;5008697;28;20036;-68
2021/12/16 03:53:38;;;;;;;;;;;9.60;99.90;;;;;;5007868;28;20365;-69
2021/12/16 03:56:04;;;;;;;;;;;9.50;99.90;;;;;;5008308;28;19948;-69
2021/12/16 03:58:29;;;;;;;;;;;9.50;99.90;;;;;;5008363;28;19914;-67
2021/12/16 04:00:57;;;;;;;;;;;9.50;99.90;;;;;;5008566;28;20456;-68
2021/12/16 04:03:23;;;;;;;;;;;9.50;99.90;;;;;;5008612;28;19913;-69
2021/12/16 04:05:48;;;;;;;;;;;9.50;99.90;;;;;;5007967;28;19928;-69
2021/12/16 04:08:14;;;;;;;;;;;9.50;99.90;;;;;;5009272;28;20386;-67
2021/12/16 04:10:45;;;;;;;;;;;9.50;99.90;;;;;;5008127;28;20361;-69
2021/12/16 04:13:14;;;;;;;;;;;9.60;99.90;;;;;;5008540;28;20003;-68
2021/12/16 04:15:40;;;;;;;;;;;9.70;99.90;;;;;;5009086;28;19909;-68
2021/12/16 04:18:06;;;;;;;;;;;9.60;99.90;;;;;;5023527;28;19917;-68
2021/12/16 04:20:32;;;;;;;;;;;9.70;99.90;;;;;;5024538;28;19913;-68
2021/12/16 04:22:58;;;;;;;;;;;9.70;99.90;;;;;;5008296;28;19910;-68
2021/12/16 04:25:25;;;;;;;;;;;9.70;99.90;;;;;;5008669;28;20531;-68
2021/12/16 04:27:54;;;;;;;;;;;9.70;99.90;;;;;;5008061;28;20333;-69
2021/12/16 04:30:20;;;;;;;;;;;9.70;99.90;;;;;;5008800;28;19910;-69
2021/12/16 04:32:46;;;;;;;;;;;9.80;99.90;;;;;;5007480;28;20341;-68
2021/12/16 04:35:12;;;;;;;;;;;9.60;99.90;;;;;;5008305;28;20004;-68
2021/12/16 04:37:37;;;;;;;;;;;9.60;99.90;;;;;;5008994;28;19909;-68
2021/12/16 04:40:06;;;;;;;;;;;9.70;99.90;;;;;;5009082;28;20341;-68
2021/12/16 04:42:32;;;;;;;;;;;9.70;99.90;;;;;;5022466;28;20261;-68
2021/12/16 04:44:57;;;;;;;;;;;9.60;99.90;;;;;;5018975;28;19910;-68
2021/12/16 04:47:23;;;;;;;;;;;9.50;99.90;;;;;;5017804;28;19953;-68
2021/12/16 04:49:49;;;;;;;;;;;9.50;99.90;;;;;;5015388;28;19910;-68
2021/12/16 04:52:16;;;;;;;;;;;9.40;99.90;;;;;;5015172;28;19913;-67
2021/12/16 04:54:41;;;;;;;;;;;9.50;99.90;;;;;;5011547;28;20430;-69
2021/12/16 04:57:07;;;;;;;;;;;9.50;99.90;;;;;;5011492;28;19989;-67
2021/12/16 04:59:34;;;;;;;;;;;9.50;99.90;;;;;;5009916;28;19983;-68
2021/12/16 05:02:02;;;;;;;;;;;9.60;99.90;;;;;;5010471;28;19917;-69
2021/12/16 05:04:27;;;;;;;;;;;9.50;99.90;;;;;;5010704;28;19926;-67
2021/12/16 05:06:53;;;;;;;;;;;9.60;99.90;;;;;;5013068;28;19917;-68
2021/12/16 05:10:05;;;;;;;;;;;9.70;99.90;;;;;;5010370;28;20335;-71
2021/12/16 05:12:06;;;;;;;;;;;9.70;99.90;;;;;;5008978;28;19917;-68
2021/12/16 05:14:32;;;;;;;;;;;9.60;99.90;;;;;;5008922;28;19955;-69
2021/12/16 05:16:58;;;;;;;;;;;9.60;99.90;;;;;;5021497;28;20361;-68
2021/12/16 05:19:23;;;;;;;;;;;9.70;99.90;;;;;;5017319;28;19913;-68
2021/12/16 05:21:58;;;;;;;;;;;9.70;99.90;;;;;;5017759;28;19929;-68
2021/12/16 05:24:27;;;;;;;;;;;9.60;99.90;;;;;;5013898;28;20014;-68
2021/12/16 05:26:56;;;;;;;;;;;9.60;99.90;;;;;;5011575;28;20538;-69
2021/12/16 05:29:22;;;;;;;;;;;9.60;99.90;;;;;;5010131;28;19981;-68
2021/12/16 05:31:48;;;;;;;;;;;9.70;99.90;;;;;;5011868;28;19956;-69
2021/12/16 05:34:14;;;;;;;;;;;9.70;99.90;;;;;;5011529;28;20394;-68
2021/12/16 05:36:40;;;;;;;;;;;9.70;99.90;;;;;;5012675;28;20302;-68
2021/12/16 05:39:06;;;;;;;;;;;9.60;99.90;;;;;;5007418;28;19959;-69
2021/12/16 05:41:32;;;;;;;;;;;9.70;99.90;;;;;;5010924;28;19921;-69
2021/12/16 05:43:58;;;;;;;;;;;9.70;99.90;;;;;;5010496;28;19918;-68
2021/12/16 05:46:24;;;;;;;;;;;9.70;99.90;;;;;;5009296;28;20485;-70
2021/12/16 05:48:51;;;;;;;;;;;9.60;99.90;;;;;;5011640;28;20236;-67
2021/12/16 05:51:21;;;;;;;;;;;9.60;99.90;;;;;;5012063;28;20387;-69
2021/12/16 05:53:48;;;;;;;;;;;9.60;99.90;;;;;;5013062;28;19913;-69
2021/12/16 05:56:13;;;;;;;;;;;9.60;99.90;;;;;;5008907;28;19914;-68
2021/12/16 05:58:39;;;;;;;;;;;9.60;99.90;;;;;;5010438;28;19914;-68
2021/12/16 06:01:12;;;;;;;;;;;9.70;99.90;;;;;;5010458;28;19918;-69
2021/12/16 06:03:39;;;;;;;;;;;9.80;99.90;;;;;;5012126;28;19964;-68
2021/12/16 06:06:04;;;;;;;;;;;9.90;99.90;;;;;;5011034;28;19918;-68
2021/12/16 06:08:30;;;;;;;;;;;9.80;99.90;;;;;;5014368;28;19918;-70
2021/12/16 06:13:35;;;;;;;;;;;9.80;99.90;;;;;;5014198;28;19960;-68
2021/12/16 06:27:08;;;;;;;;;;;9.80;99.90;;;;;;5011386;28;19932;-68
2021/12/16 06:29:35;;;;;;;;;;;9.80;99.90;;;;;;4996508;28;19921;-69
2021/12/16 06:32:01;;;;;;;;;;;9.70;99.90;;;;;;5003034;28;19917;-69
2021/12/16 06:34:26;;;;;;;;;;;9.80;99.90;;;;;;5007889;28;19922;-68
2021/12/16 06:36:52;;;;;;;;;;;9.70;99.90;;;;;;5007986;28;19960;-68
2021/12/16 06:39:17;;;;;;;;;;;9.70;99.90;;;;;;5022821;28;19910;-69
2021/12/16 06:41:43;;;;;;;;;;;9.70;99.90;;;;;;5009543;28;19920;-69
2021/12/16 06:44:29;;;;;;;;;;;9.70;99.90;;;;;;5011568;28;19917;-68
2021/12/16 06:47:01;;;;;;;;;;;9.70;99.90;;;;;;5012094;28;20016;-68
2021/12/16 06:49:28;;;;;;;;;;;9.70;99.90;;;;;;5001743;28;19924;-68
2021/12/16 06:51:58;;;;;;;;;;;9.60;99.90;;;;;;5010055;28;19921;-68
2021/12/16 06:54:37;;;;;;;;;;;9.60;99.90;;;;;;5009093;28;19956;-68
2021/12/16 06:59:42;;;;;;;;;;;9.60;99.90;;;;;;5010427;28;19921;-70
2021/12/16 07:02:17;;;;;;;;;;;9.60;99.90;;;;;;5007974;28;20003;-69
2021/12/16 07:04:43;;;;;;;;;;;9.60;99.90;;;;;;5008032;28;20440;-68
2021/12/16 07:07:10;;;;;;;;;;;9.50;99.90;;;;;;5009786;28;20456;-68
2021/12/16 07:09:35;;;;;;;;;;;9.50;99.90;;;;;;5006889;28;19913;-68
2021/12/16 07:12:02;;;;;;;;;;;9.50;99.90;;;;;;5010873;28;19916;-69
2021/12/16 07:14:36;;;;;;;;;;;9.50;99.90;;;;;;5014070;28;19917;-69
2021/12/16 07:17:20;;;;;;;;;;;9.40;99.90;;;;;;5007042;28;20465;-68
2021/12/16 07:19:46;;;;;;;;;;;9.40;99.90;;;;;;5012686;28;19916;-69
2021/12/16 07:22:12;;;;;;;;;;;9.40;99.90;;;;;;5008368;28;20036;-68
2021/12/16 07:24:38;;;;;;;;;;;9.40;99.90;;;;;;5008038;28;19910;-69
2021/12/16 07:27:04;;;;;;;;;;;9.30;99.90;;;;;;5008856;28;19924;-69
2021/12/16 07:29:29;;;;;;;;;;;9.20;99.90;;;;;;5008016;28;20110;-69
2021/12/16 07:31:55;;;;;;;;;;;9.20;99.90;;;;;;5008945;28;20437;-69
2021/12/16 07:34:21;;;;;;;;;;;9.30;99.90;;;;;;5009349;28;19909;-69
2021/12/16 07:36:47;;;;;;;;;;;9.10;99.90;;;;;;5008740;28;20378;-69
2021/12/16 07:39:14;;;;;;;;;;;9.00;99.90;;;;;;5008338;28;19968;-69
2021/12/16 07:41:41;;;;;;;;;;;8.90;99.90;;;;;;5008314;28;19971;-68
2021/12/16 07:44:10;;;;;;;;;;;8.70;99.90;;;;;;5008618;28;19918;-68
2021/12/16 07:46:40;;;;;;;;;;;8.60;99.90;;;;;;5008646;28;20454;-68
2021/12/16 07:49:06;;;;;;;;;;;8.60;99.90;;;;;;5008806;28;19920;-67
2021/12/16 07:51:32;;;;;;;;;;;8.60;99.90;;;;;;5013781;28;19909;-68
2021/12/16 07:53:57;;;;;;;;;;;8.60;99.90;;;;;;5005630;28;19955;-67
2021/12/16 07:56:23;;;;;;;;;;;8.60;99.90;;;;;;5007780;28;19955;-67
2021/12/16 07:58:48;;;;;;;;;;;8.60;99.90;;;;;;5008777;28;19910;-70
2021/12/16 08:01:14;;;;;;;;;;;8.60;99.90;;;;;;5008522;28;19917;-69
2021/12/16 08:03:41;;;;;;;;;;;8.50;99.90;;;;;;5007360;28;19936;-69
2021/12/16 08:06:10;;;;;;;;;;;8.50;99.90;;;;;;5012279;28;19917;-69
2021/12/16 08:08:35;;;;;;;;;;;8.40;99.90;;;;;;5027590;28;19921;-70
2021/12/16 08:11:01;;;;;;;;;;;8.40;99.90;;;;;;5028084;28;19909;-70
2021/12/16 08:13:26;;;;;;;;;;;8.40;99.90;;;;;;5027990;28;20583;-69
2021/12/16 08:15:52;;;;;;;;;;;8.50;99.90;;;;;;5018844;28;20258;-69
2021/12/16 08:18:17;;;;;;;;;;;8.50;99.90;;;;;;5027491;28;19944;-68
2021/12/16 08:20:43;;;;;;;;;;;8.50;99.90;;;;;;5027079;28;20348;-68
2021/12/16 08:23:08;;;;;;;;;;;8.40;99.90;;;;;;5027816;28;19956;-69
2021/12/16 08:25:34;;;;;;;;;;;8.40;99.90;;;;;;5028724;28;19913;-68
2021/12/16 08:28:03;;;;;;;;;;;8.50;99.90;;;;;;5028340;28;19924;-67
2021/12/16 08:30:29;;;;;;;;;;;8.60;99.90;;;;;;5029672;28;19917;-68
2021/12/16 08:32:55;;;;;;;;;;;8.50;99.90;;;;;;5018224;28;19909;-69
2021/12/16 08:35:21;;;;;;;;;;;8.50;99.90;;;;;;5028591;28;20027;-69
2021/12/16 08:37:47;;;;;;;;;;;8.50;99.90;;;;;;5028025;28;19914;-68
2021/12/16 08:40:17;;;;;;;;;;;8.60;99.90;;;;;;5028071;28;19909;-69
2021/12/16 08:42:43;;;;;;;;;;;8.60;99.90;;;;;;5043107;28;19913;-69
2021/12/16 08:45:11;;;;;;;;;;;8.60;99.90;;;;;;5027764;28;19913;-70
2021/12/16 08:47:36;;;;;;;;;;;8.60;99.90;;;;;;5027941;28;19913;-68
2021/12/16 08:50:03;;;;;;;;;;;8.60;99.90;;;;;;5027146;28;20273;-68
2021/12/16 08:52:29;;;;;;;;;;;8.60;99.90;;;;;;5027901;28;20001;-69
2021/12/16 08:54:54;;;;;;;;;;;8.70;99.90;;;;;;5014886;28;20012;-69
2021/12/16 08:57:20;;;;;;;;;;;8.80;99.90;;;;;;5007775;28;19909;-68
2021/12/16 08:59:47;;;;;;;;;;;8.80;99.90;;;;;;5008002;28;19913;-70
2021/12/16 09:02:13;;;;;;;;;;;8.70;99.90;;;;;;5007239;28;19916;-68
2021/12/16 09:04:39;;;;;;;;;;;8.60;99.90;;;;;;5007596;28;19918;-67
2021/12/16 09:07:06;;;;;;;;;;;8.80;99.90;;;;;;5017628;28;20444;-68
2021/12/16 09:09:34;;;;;;;;;;;8.80;99.90;;;;;;5027795;28;20293;-69
2021/12/16 09:12:10;;;;;;;;;;;8.80;99.90;;;;;;5027043;28;19913;-68
2021/12/16 09:14:36;;;;;;;;;;;8.90;99.90;;;;;;5026970;28;20531;-67
2021/12/16 09:17:03;;;;;;;;;;;9.00;99.90;;;;;;5026091;28;19913;-67
2021/12/16 09:19:29;;;;;;;;;;;9.10;99.90;;;;;;5027913;28;19909;-68
2021/12/16 09:21:54;;;;;;;;;;;9.10;99.90;;;;;;5027610;28;19988;-68
2021/12/16 09:24:20;;;;;;;;;;;9.10;99.90;;;;;;5027921;28;20221;-68
2021/12/16 09:26:46;;;;;;;;;;;9.10;99.90;;;;;;5029078;28;19909;-68
2021/12/16 09:29:12;;;;;;;;;;;9.20;99.90;;;;;;5030870;28;20555;-68
2021/12/16 09:31:37;;;;;;;;;;;9.30;99.90;;;;;;5026399;28;19944;-69
2021/12/16 09:34:07;;;;;;;;;;;9.30;99.90;;;;;;5026386;28;19959;-69
2021/12/16 09:36:34;;;;;;;;;;;9.40;99.90;;;;;;5035182;28;19920;-68
2021/12/16 09:39:00;;;;;;;;;;;9.50;99.90;;;;;;5033065;28;20622;-71
2021/12/16 09:41:27;;;;;;;;;;;9.50;99.90;;;;;;5032868;28;19909;-68
2021/12/16 09:43:53;;;;;;;;;;;9.50;99.90;;;;;;5031550;28;19910;-68
2021/12/16 09:46:21;;;;;;;;;;;9.60;99.90;;;;;;5032470;28;20000;-69
2021/12/16 09:48:46;;;;;;;;;;;9.60;99.90;;;;;;5031651;28;20504;-68
2021/12/16 09:51:16;;;;;;;;;;;9.60;99.90;;;;;;5031427;28;20000;-68
2021/12/16 09:53:43;;;;;;;;;;;9.70;99.90;;;;;;5029560;28;20030;-67
2021/12/16 09:56:09;;;;;;;;;;;9.70;99.90;;;;;;5016150;28;19910;-68
2021/12/16 09:58:37;;;;;;;;;;;9.80;99.90;;;;;;5011107;28;19913;-68
2021/12/16 10:01:03;;;;;;;;;;;9.90;99.90;;;;;;5010648;28;19913;-67
2021/12/16 10:03:28;;;;;;;;;;;10.00;99.90;;;;;;5010337;28;19917;-69
2021/12/16 10:05:54;;;;;;;;;;;10.00;99.90;;;;;;5010492;28;19924;-68
2021/12/16 10:08:20;;;;;;;;;;;10.00;99.90;;;;;;5030095;28;19967;-66
2021/12/16 10:10:46;;;;;;;;;;;10.00;99.90;;;;;;5029874;28;19910;-69
2021/12/16 10:13:18;;;;;;;;;;;10.00;99.90;;;;;;5014957;28;19944;-67
2021/12/16 10:18:15;;;;;;;;;;;10.00;99.90;;;;;;5010897;28;20019;-68
2021/12/16 10:20:48;;;;;;;;;;;10.10;99.90;;;;;;5010561;28;19936;-68
2021/12/16 10:23:15;;;;;;;;;;;10.10;99.90;;;;;;5009973;28;20465;-68
2021/12/16 10:25:42;;;;;;;;;;;10.20;99.90;;;;;;5026563;28;19941;-68
2021/12/16 10:28:23;;;;;;;;;;;10.20;99.90;;;;;;5029918;28;19913;-67
2021/12/16 10:30:51;;;;;;;;;;;10.10;99.90;;;;;;4992913;28;19910;-67
2021/12/16 10:33:24;;;;;;;;;;;10.20;99.90;;;;;;5009891;28;19920;-68
2021/12/16 10:35:56;;;;;;;;;;;10.30;99.90;;;;;;5025812;28;19949;-67
2021/12/16 10:38:24;;;;;;;;;;;10.30;99.90;;;;;;5009638;28;19917;-68
2021/12/16 10:40:50;;;;;;;;;;;10.40;99.90;;;;;;5009519;28;19998;-67
2021/12/16 10:43:24;;;;;;;;;;;10.30;99.90;;;;;;5011230;28;19909;-69
2021/12/16 10:45:52;;;;;;;;;;;10.40;99.90;;;;;;5011888;28;19913;-67
2021/12/16 10:48:17;;;;;;;;;;;10.60;99.90;;;;;;5012127;28;19985;-67
2021/12/16 10:50:51;;;;;;;;;;;10.60;99.90;;;;;;5009779;28;19957;-67
2021/12/16 10:53:36;;;;;;;;;;;10.70;99.90;;;;;;5009843;28;20616;-67
2021/12/16 10:56:02;;;;;;;;;;;10.80;99.90;;;;;;5009855;28;19929;-67
2021/12/16 10:58:46;;;;;;;;;;;10.70;99.90;;;;;;5009937;28;20455;-67
2021/12/16 11:01:30;;;;;;;;;;;10.70;99.90;;;;;;5010504;28;19913;-67
2021/12/16 11:03:57;;;;;;;;;;;10.70;99.90;;;;;;5009232;28;19916;-67
2021/12/16 11:06:42;;;;;;;;;;;10.50;99.90;;;;;;5013307;28;19913;-67
2021/12/16 11:09:21;;;;;;;;;;;10.50;99.90;;;;;;5024608;28;20016;-67
2021/12/16 11:11:47;;;;;;;;;;;10.60;99.90;;;;;;5021322;28;20017;-66
2021/12/16 11:14:20;;;;;;;;;;;10.60;99.90;;;;;;5029301;28;19909;-68
2021/12/16 11:16:55;;;;;;;;;;;10.50;99.90;;;;;;5028851;28;19944;-68
2021/12/16 11:19:39;;;;;;;;;;;10.60;99.90;;;;;;5034206;28;19929;-68
2021/12/16 11:22:05;;;;;;;;;;;10.80;99.90;;;;;;5029227;28;19920;-68
2021/12/16 11:24:31;;;;;;;;;;;10.90;99.90;;;;;;5030056;28;19909;-68
2021/12/16 11:26:56;;;;;;;;;;;11.00;99.90;;;;;;5029540;28;19913;-68
2021/12/16 11:29:28;;;;;;;;;;;11.00;99.90;;;;;;5028575;28;19954;-68
2021/12/16 11:31:55;;;;;;;;;;;11.10;99.90;;;;;;5024244;28;19970;-68
2021/12/16 11:34:21;;;;;;;;;;;11.30;99.90;;;;;;5009252;28;19909;-68
2021/12/16 11:36:52;;;;;;;;;;;11.70;99.90;;;;;;5009665;28;19913;-69
2021/12/16 11:39:20;;;;;;;;;;;12.20;99.90;;;;;;5008885;28;20004;-69
2021/12/16 11:41:48;;;;;;;;;;;12.70;99.90;;;;;;5009196;28;19916;-68
2021/12/16 11:44:17;;;;;;;;;;;13.00;99.90;;;;;;5023639;28;19917;-68
2021/12/16 11:47:04;;;;;;;;;;;13.30;99.90;;;;;;5007287;28;19918;-68
2021/12/16 11:49:32;;;;;;;;;;;13.30;99.90;;;;;;5007623;28;19914;-67
2021/12/16 11:52:03;;;;;;;;;;;13.50;99.90;;;;;;5008890;28;20012;-68
2021/12/16 11:54:37;;;;;;;;;;;13.40;99.90;;;;;;5008578;28;20533;-68
2021/12/16 11:57:12;;;;;;;;;;;13.50;99.90;;;;;;5008935;28;19910;-68
2021/12/16 11:59:39;;;;;;;;;;;13.90;99.90;;;;;;5008319;28;20008;-68
2021/12/16 12:02:06;;;;;;;;;;;13.70;99.90;;;;;;5008599;28;19914;-68
2021/12/16 12:04:34;;;;;;;;;;;13.90;99.90;;;;;;5008995;28;20440;-69
2021/12/16 12:07:07;;;;;;;;;;;13.50;99.90;;;;;;5018209;28;19917;-68
2021/12/16 12:09:35;;;;;;;;;;;13.40;99.90;;;;;;5015467;28;19917;-69
2021/12/16 12:12:00;;;;;;;;;;;13.00;99.90;;;;;;5010111;28;19936;-69
2021/12/16 12:14:30;;;;;;;;;;;12.90;99.90;;;;;;5011257;28;20361;-68
2021/12/16 12:17:01;;;;;;;;;;;13.00;99.90;;;;;;5010830;28;20413;-68
2021/12/16 12:19:27;;;;;;;;;;;13.30;99.90;;;;;;5011239;28;19920;-68
2021/12/16 12:21:56;;;;;;;;;;;13.10;99.90;;;;;;5009037;28;19909;-67
2021/12/16 12:24:24;;;;;;;;;;;13.20;99.90;;;;;;5014650;28;20391;-68
2021/12/16 12:26:54;;;;;;;;;;;13.20;99.90;;;;;;5028924;28;19931;-69
2021/12/16 12:29:30;;;;;;;;;;;12.90;99.90;;;;;;5028608;28;20387;-68
2021/12/16 12:31:59;;;;;;;;;;;13.20;99.90;;;;;;5023906;28;19937;-69
2021/12/16 12:34:25;;;;;;;;;;;13.40;99.90;;;;;;5009846;28;19910;-69
2021/12/16 12:36:52;;;;;;;;;;;13.60;99.90;;;;;;5009305;28;19910;-68
2021/12/16 12:39:19;;;;;;;;;;;13.80;99.90;;;;;;5010235;28;19913;-69
2021/12/16 12:41:45;;;;;;;;;;;13.90;99.90;;;;;;5009877;28;19910;-68
2021/12/16 12:44:11;;;;;;;;;;;13.60;99.90;;;;;;5014304;28;19964;-68
2021/12/16 12:46:39;;;;;;;;;;;13.40;99.90;;;;;;5020962;28;19928;-68
2021/12/16 12:49:06;;;;;;;;;;;13.40;99.90;;;;;;5028594;28;20389;-68
2021/12/16 12:51:37;;;;;;;;;;;13.50;99.90;;;;;;5028938;28;19913;-69
2021/12/16 12:54:17;;;;;;;;;;;13.80;99.90;;;;;;5031064;28;19936;-68
2021/12/16 12:56:43;;;;;;;;;;;13.80;99.90;;;;;;5031349;28;20126;-69
2021/12/16 12:59:11;;;;;;;;;;;13.70;99.90;;;;;;5035607;28;19959;-70
2021/12/16 13:01:50;;;;;;;;;;;13.40;99.90;;;;;;5032435;28;19914;-68
2021/12/16 13:04:19;;;;;;;;;;;13.10;99.90;;;;;;5022913;28;20588;-69
2021/12/16 13:06:49;;;;;;;;;;;12.90;99.90;;;;;;5032129;28;20005;-70
2021/12/16 13:09:27;;;;;;;;;;;12.60;99.90;;;;;;5019610;28;19941;-68
2021/12/16 13:11:53;;;;;;;;;;;12.60;99.90;;;;;;5034968;28;19920;-68
2021/12/16 13:14:24;;;;;;;;;;;12.50;99.90;;;;;;5035273;28;20007;-68
2021/12/16 13:17:14;;;;;;;;;;;12.40;99.90;;;;;;5039956;28;19909;-70
2021/12/16 13:28:35;;;;;;;;;;;12.20;99.90;;;;;;5041371;28;19928;-68
2021/12/16 13:31:05;;;;;;;;;;;12.30;99.90;;;;;;5037751;28;19909;-68
2021/12/16 13:33:40;;;;;;;;;;;12.40;99.90;;;;;;5020986;28;19910;-68
2021/12/16 13:36:25;;;;;;;;;;;12.30;99.90;;;;;;5019256;28;20337;-68
2021/12/16 13:38:51;;;;;;;;;;;12.20;99.90;;;;;;5020341;28;19909;-69
2021/12/16 13:41:19;;;;;;;;;;;12.20;99.90;;;;;;5020369;28;19914;-69
2021/12/16 13:44:04;;;;;;;;;;;12.20;99.90;;;;;;5020064;28;19941;-68
2021/12/16 13:46:40;;;;;;;;;;;12.30;99.90;;;;;;5020929;28;19913;-67
2021/12/16 14:02:56;;;;;;;;;;;12.10;99.90;;;;;;5021325;28;19971;-69
2021/12/16 14:05:44;;;;;;;;;;;12.00;99.90;;;;;;5028653;28;20015;-69
2021/12/16 14:08:13;;;;;;;;;;;12.00;99.90;;;;;;5014099;28;19917;-69
2021/12/16 14:10:51;;;;;;;;;;;12.00;99.90;;;;;;5012682;28;19920;-69
2021/12/16 14:14:08;;;;;;;;;;;12.00;99.90;;;;;;5010715;28;19910;-68
2021/12/16 14:16:37;;;;;;;;;;;12.00;99.90;;;;;;5012217;28;19928;-68
2021/12/16 14:31:06;;;;;;;;;;;12.00;99.90;;;;;;5035694;28;19913;-70
2021/12/16 14:36:10;;;;;;;;;;;11.80;99.90;;;;;;5011001;28;20449;-69
2021/12/16 14:41:39;;;;;;;;;;;11.60;99.90;;;;;;5017559;28;20512;-67
2021/12/16 14:45:08;;;;;;;;;;;11.60;99.90;;;;;;5011661;28;19916;-69
2021/12/16 14:47:01;;;;;;;;;;;11.70;99.90;;;;;;5012617;28;19909;-69
2021/12/16 14:49:30;;;;;;;;;;;11.80;99.90;;;;;;5018045;28;20020;-69
2021/12/16 14:51:58;;;;;;;;;;;11.80;99.90;;;;;;5012499;28;19909;-69
2021/12/16 14:54:23;;;;;;;;;;;11.80;99.90;;;;;;5027286;28;19977;-70
2021/12/16 14:56:49;;;;;;;;;;;11.90;99.90;;;;;;5010909;28;19921;-69
2021/12/16 14:59:15;;;;;;;;;;;11.90;99.90;;;;;;5011586;28;19910;-69
2021/12/16 15:01:42;;;;;;;;;;;11.80;99.90;;;;;;5012653;28;19913;-68
2021/12/16 15:04:09;;;;;;;;;;;11.70;99.90;;;;;;5015958;28;19917;-69
2021/12/16 15:06:46;;;;;;;;;;;11.60;99.90;;;;;;5025458;28;19941;-69
2021/12/16 15:09:36;;;;;;;;;;;11.70;99.90;;;;;;5014039;28;19917;-69
2021/12/16 15:15:01;;;;;;;;;;;11.70;99.90;;;;;;5010851;28;20294;-69
2021/12/16 15:31:56;;;;;;;;;;;11.50;99.90;;;;;;4989964;28;20391;-69
2021/12/16 15:44:22;;;;;;;;;;;11.30;99.90;;;;;;5013592;28;19917;-69
2021/12/16 15:46:49;;;;;;;;;;;11.20;99.90;;;;;;5010036;28;19913;-69
2021/12/16 15:49:15;;;;;;;;;;;11.10;99.90;;;;;;5009230;28;19913;-69
2021/12/16 15:51:40;;;;;;;;;;;11.10;99.90;;;;;;5009189;28;20005;-70
2021/12/16 15:54:08;;;;;;;;;;;11.10;99.90;;;;;;5009282;28;20377;-70
2021/12/16 15:56:36;;;;;;;;;;;11.10;99.90;;;;;;5024008;28;20404;-69
2021/12/16 15:59:09;;;;;;;;;;;11.00;99.90;;;;;;5016815;28;19910;-71
2021/12/16 16:01:38;;;;;;;;;;;11.00;99.90;;;;;;5023529;28;19910;-69
2021/12/16 16:04:11;;;;;;;;;;;11.00;99.90;;;;;;5011682;28;19921;-69
2021/12/16 16:06:41;;;;;;;;;;;10.90;99.90;;;;;;5022497;28;19909;-70
2021/12/16 16:09:10;;;;;;;;;;;10.90;99.90;;;;;;5008909;28;20090;-71
2021/12/16 16:11:37;;;;;;;;;;;10.70;99.90;;;;;;5009472;28;20371;-69
2021/12/16 16:14:04;;;;;;;;;;;10.50;99.90;;;;;;5009198;28;19916;-69
2021/12/16 16:16:35;;;;;;;;;;;10.20;99.90;;;;;;5008786;28;19981;-69
2021/12/16 16:19:03;;;;;;;;;;;10.20;99.90;;;;;;5008965;28;20003;-69
2021/12/16 16:21:36;;;;;;;;;;;10.20;99.90;;;;;;5009264;28;19916;-69
2021/12/16 16:24:05;;;;;;;;;;;10.20;99.90;;;;;;5009412;28;19949;-69
2021/12/16 16:26:30;;;;;;;;;;;10.30;99.90;;;;;;5009196;28;19909;-68
2021/12/16 16:28:59;;;;;;;;;;;10.20;99.90;;;;;;5008656;28;20564;-69
2021/12/16 16:31:25;;;;;;;;;;;10.20;99.90;;;;;;5009189;28;19972;-68
2021/12/16 16:33:51;;;;;;;;;;;10.20;99.90;;;;;;5009422;28;19925;-70
2021/12/16 16:36:19;;;;;;;;;;;10.20;99.90;;;;;;5013114;28;19932;-69
2021/12/16 16:38:44;;;;;;;;;;;10.20;99.90;;;;;;5015526;28;19909;-69
2021/12/16 16:41:14;;;;;;;;;;;10.20;99.90;;;;;;5016148;28;19924;-71
2021/12/16 16:43:42;;;;;;;;;;;10.20;99.90;;;;;;5015615;28;19917;-70
2021/12/16 16:46:12;;;;;;;;;;;10.10;99.90;;;;;;5015111;28;19918;-70
2021/12/16 16:51:07;;;;;;;;;;;9.90;99.90;;;;;;5015632;28;19920;-70
2021/12/16 16:53:42;;;;;;;;;;;9.80;99.90;;;;;;5015669;28;19910;-70
2021/12/16 16:56:07;;;;;;;;;;;9.70;99.90;;;;;;5013974;28;19916;-69
2021/12/16 16:58:33;;;;;;;;;;;9.70;99.90;;;;;;5015427;28;20000;-69
2021/12/16 17:01:01;;;;;;;;;;;9.60;99.90;;;;;;5015717;28;20274;-70
2021/12/16 17:03:26;;;;;;;;;;;9.50;99.90;;;;;;5017632;28;20285;-69
2021/12/16 17:05:57;;;;;;;;;;;9.50;99.90;;;;;;5016390;28;19924;-69
2021/12/16 17:08:27;;;;;;;;;;;9.60;99.90;;;;;;5008588;28;19918;-69
2021/12/16 17:10:55;;;;;;;;;;;9.50;99.90;;;;;;5022345;28;19910;-69
2021/12/16 17:13:38;;;;;;;;;;;9.50;99.90;;;;;;5026217;28;19909;-70
2021/12/16 17:18:35;;;;;;;;;;;9.50;99.90;;;;;;5026341;28;19922;-71
2021/12/16 17:21:10;;;;;;;;;;;9.50;99.90;;;;;;5018674;28;19948;-69
2021/12/16 17:23:36;;;;;;;;;;;9.40;99.90;;;;;;5015643;28;19920;-71
2021/12/16 17:26:16;;;;;;;;;;;9.30;99.90;;;;;;5016436;28;19932;-70
2021/12/16 17:28:42;;;;;;;;;;;9.30;99.90;;;;;;5015457;28;19917;-70
2021/12/16 17:31:07;;;;;;;;;;;9.30;99.90;;;;;;5014048;28;19928;-71
2021/12/16 17:33:34;;;;;;;;;;;9.30;99.90;;;;;;5021244;28;20012;-70
2021/12/16 17:36:00;;;;;;;;;;;9.40;99.90;;;;;;5011481;28;19920;-70
2021/12/16 17:38:27;;;;;;;;;;;9.30;99.90;;;;;;5018345;28;19913;-70
2021/12/16 17:41:02;;;;;;;;;;;9.30;99.90;;;;;;5012698;28;19929;-70
2021/12/16 17:43:30;;;;;;;;;;;9.30;99.90;;;;;;5013162;28;19918;-70
2021/12/16 17:45:58;;;;;;;;;;;9.20;99.90;;;;;;5013929;28;19916;-70
2021/12/16 17:48:27;;;;;;;;;;;9.00;99.90;;;;;;5010467;28;19924;-71
2021/12/16 17:50:54;;;;;;;;;;;9.00;99.90;;;;;;5011600;28;19963;-70
2021/12/16 17:53:20;;;;;;;;;;;9.00;99.90;;;;;;5011524;28;20436;-69
2021/12/16 17:55:49;;;;;;;;;;;9.10;99.90;;;;;;5013321;28;19921;-70
2021/12/16 17:58:18;;;;;;;;;;;9.10;99.90;;;;;;5017021;28;19914;-70
2021/12/16 18:00:50;;;;;;;;;;;9.10;99.90;;;;;;5014069;28;19955;-70
2021/12/16 18:03:23;;;;;;;;;;;9.00;99.90;;;;;;5010766;28;19921;-70
2021/12/16 18:05:51;;;;;;;;;;;8.90;99.90;;;;;;5028839;28;19975;-71
2021/12/16 18:08:34;;;;;;;;;;;8.80;99.90;;;;;;5010157;28;20320;-70